CheckWX is a tool to help pilots better visualize weather data.  It is not intended as a substitute for an official pre-flight weather briefing.

19:11:51 UTC

KGVT METAR
Majors Airport
Greenville, Texas, USA
Current

22 mins ago

KGVT 221850Z AUTO 05006KT 7SM -RA OVC004 10/10 A3000 RMK AO2
Observed
Feb-22 @ 18:50 UTC
Wind
  • 050° at 6 KTS
Visibility
7 SM
Flight Rules
LIFR
Conditions
Light Rain
Cloud Levels
  • Overcast at 400' AGL
Temperature
10°C / 50°F
Dewpoint
10°C / 50°F
Humidity
100%
Altimeter
30" Hg
Pressure
1015.92 hPa
Previous

42 mins ago

KGVT 221830Z AUTO 07006KT 10SM OVC004 10/10 A3002 RMK AO2 LTG DSNT SE
Observed
Feb-22 @ 18:30 UTC
Wind
  • 070° at 6 KTS
Visibility
10 SM
Flight Rules
LIFR
Cloud Levels
  • Overcast at 400' AGL
Temperature
10°C / 50°F
Dewpoint
10°C / 50°F
Humidity
100%
Altimeter
30.02" Hg
Pressure
1016.62 hPa
Previous

57 mins ago

KGVT 221815Z AUTO 05007KT 5SM BR OVC002 10/10 A3003 RMK AO2 LTG DSNT NE
Observed
Feb-22 @ 18:15 UTC
Wind
  • 050° at 7 KTS
Visibility
5 SM
Flight Rules
LIFR
Conditions
Mist
Cloud Levels
  • Overcast at 200' AGL
Temperature
10°C / 50°F
Dewpoint
10°C / 50°F
Humidity
100%
Altimeter
30.03" Hg
Pressure
1016.92 hPa